Time;durP1;ratioP1;P1;durP2;ratioP2;P2;SDS_P1;SDS_P2;PMS_P1;PMS_P2;Temp;Humidity;BMP_temperature;BMP_pressure;BME280_temperature;BME280_humidity;BME280_pressure;Samples;Min_cycle;Max_cycle;Signal;HPM_P1;HPM_P2
2023/03/22 00:01:09;;;;;;;7.95;5.68;;;11.10;1.00;;;;;;5040039;28;20465;-61
2023/03/22 00:03:36;;;;;;;7.53;5.80;;;11.20;1.00;;;;;;5039156;28;20423;-61
2023/03/22 00:06:05;;;;;;;9.57;5.40;;;11.30;1.00;;;;;;5040119;28;20413;-61
2023/03/22 00:08:31;;;;;;;6.97;5.30;;;11.20;1.00;;;;;;5041150;28;20888;-61
2023/03/22 00:10:58;;;;;;;9.67;6.13;;;11.20;1.00;;;;;;5039103;28;20415;-60
2023/03/22 00:13:25;;;;;;;8.07;6.00;;;11.30;1.00;;;;;;5041514;28;20422;-61
2023/03/22 00:15:52;;;;;;;8.43;5.65;;;11.20;1.00;;;;;;5044981;28;20961;-61
2023/03/22 00:18:19;;;;;;;8.15;5.80;;;11.20;1.00;;;;;;5043897;28;20418;-60
2023/03/22 00:20:49;;;;;;;10.25;5.78;;;11.20;1.00;;;;;;5042850;28;20422;-61
2023/03/22 00:23:17;;;;;;;8.68;5.72;;;11.30;1.00;;;;;;5045579;28;20428;-60
2023/03/22 00:25:45;;;;;;;9.25;5.63;;;11.20;1.00;;;;;;5049691;28;20418;-59
2023/03/22 00:28:12;;;;;;;10.25;5.90;;;11.20;1.00;;;;;;5040977;28;20414;-61
2023/03/22 00:30:40;;;;;;;12.48;6.38;;;11.20;1.00;;;;;;5043321;28;20422;-58
2023/03/22 00:33:07;;;;;;;8.90;6.55;;;11.10;1.00;;;;;;5044712;28;20421;-61
2023/03/22 00:35:34;;;;;;;10.80;6.27;;;11.10;1.00;;;;;;5043165;28;20487;-61
2023/03/22 00:38:05;;;;;;;8.32;6.30;;;11.20;1.00;;;;;;5042224;28;20527;-60
2023/03/22 00:40:33;;;;;;;9.73;6.20;;;11.20;1.00;;;;;;5043784;28;20842;-61
2023/03/22 00:43:00;;;;;;;11.35;6.50;;;11.20;1.00;;;;;;5044605;28;20915;-61
2023/03/22 00:45:26;;;;;;;11.98;6.40;;;11.10;1.00;;;;;;5042769;28;20410;-61
2023/03/22 00:47:53;;;;;;;9.02;6.32;;;11.10;1.00;;;;;;5042802;28;20488;-61
2023/03/22 00:50:20;;;;;;;9.27;6.07;;;11.20;1.00;;;;;;5044552;28;20424;-61
2023/03/22 00:52:46;;;;;;;9.73;6.30;;;11.20;1.00;;;;;;5043364;28;20419;-61
2023/03/22 00:55:13;;;;;;;8.98;6.40;;;11.20;1.00;;;;;;5053822;28;20435;-60
2023/03/22 00:57:41;;;;;;;9.98;6.43;;;11.10;1.00;;;;;;5048030;28;20430;-61
2023/03/22 01:00:12;;;;;;;9.35;6.35;;;11.10;1.00;;;;;;5042460;28;20418;-60
2023/03/22 01:02:40;;;;;;;10.75;7.30;;;11.00;1.00;;;;;;5033379;28;20415;-60
2023/03/22 01:05:08;;;;;;;10.25;7.00;;;11.00;1.00;;;;;;5033071;28;20419;-60
2023/03/22 01:07:37;;;;;;;10.30;6.55;;;11.00;5.60;;;;;;5033051;28;20415;-61
2023/03/22 01:10:04;;;;;;;10.47;6.87;;;11.10;3.40;;;;;;5033106;28;20803;-60
2023/03/22 01:12:31;;;;;;;11.07;6.95;;;10.90;7.80;;;;;;5033770;28;20418;-60
2023/03/22 01:14:59;;;;;;;11.60;7.18;;;10.90;22.20;;;;;;5042863;28;20429;-60
2023/03/22 01:17:25;;;;;;;9.88;7.45;;;10.80;24.70;;;;;;5043804;28;20416;-60
2023/03/22 01:19:52;;;;;;;9.73;7.18;;;10.70;39.90;;;;;;5041889;28;20422;-61
2023/03/22 01:22:19;;;;;;;9.38;7.07;;;10.80;35.00;;;;;;5041937;28;20861;-61
2023/03/22 01:24:46;;;;;;;11.20;7.53;;;10.70;42.00;;;;;;5056723;28;20820;-61
2023/03/22 01:27:12;;;;;;;11.40;7.60;;;10.80;47.80;;;;;;5048485;28;20421;-60
2023/03/22 01:29:39;;;;;;;9.60;7.38;;;10.80;42.20;;;;;;5043976;28;20424;-60
2023/03/22 01:32:07;;;;;;;9.43;7.00;;;10.70;55.00;;;;;;5043819;28;20478;-60
2023/03/22 01:34:34;;;;;;;10.65;7.38;;;10.70;53.70;;;;;;5044168;28;20423;-61
2023/03/22 01:37:01;;;;;;;10.63;7.13;;;10.70;60.60;;;;;;5044166;28;21213;-61
2023/03/22 01:39:27;;;;;;;11.75;7.95;;;10.70;57.30;;;;;;5042897;28;20423;-61
2023/03/22 01:41:54;;;;;;;13.48;7.82;;;10.70;54.70;;;;;;5041333;28;20414;-61
2023/03/22 01:44:23;;;;;;;13.57;8.18;;;10.60;56.50;;;;;;5042885;28;20445;-61
2023/03/22 01:46:51;;;;;;;11.13;7.90;;;10.60;65.30;;;;;;5043317;28;20409;-61
2023/03/22 01:49:26;;;;;;;11.82;8.13;;;10.60;74.70;;;;;;5041253;28;20490;-61
2023/03/22 01:51:55;;;;;;;12.20;7.85;;;10.60;63.70;;;;;;5041001;28;20419;-59
2023/03/22 01:54:26;;;;;;;11.90;8.03;;;10.60;70.90;;;;;;5046756;28;20433;-61
2023/03/22 01:56:53;;;;;;;12.05;8.25;;;10.60;72.50;;;;;;5047296;28;20884;-61
2023/03/22 01:59:20;;;;;;;11.70;8.35;;;10.70;63.70;;;;;;5041688;28;20419;-59
2023/03/22 02:01:47;;;;;;;11.93;8.38;;;10.60;67.10;;;;;;5041190;28;20415;-61
2023/03/22 02:04:18;;;;;;;11.25;8.50;;;10.50;75.20;;;;;;5043146;28;20412;-60
2023/03/22 02:06:48;;;;;;;11.50;8.48;;;10.50;85.20;;;;;;5042394;28;20467;-61
2023/03/22 02:09:17;;;;;;;12.07;8.77;;;10.40;89.90;;;;;;5040613;28;20417;-61
2023/03/22 02:11:49;;;;;;;13.90;8.93;;;10.40;93.20;;;;;;5041370;28;20509;-61
2023/03/22 02:14:31;;;;;;;10.60;8.35;;;10.30;96.70;;;;;;5031722;28;20430;-61
2023/03/22 02:17:17;;;;;;;12.70;9.15;;;10.30;96.20;;;;;;5040927;28;20534;-61
2023/03/22 02:20:16;;;;;;;12.23;8.88;;;10.30;94.10;;;;;;5040990;28;20928;-60
2023/03/22 02:23:08;;;;;;;11.50;8.77;;;10.30;98.60;;;;;;4991433;28;20415;-60
2023/03/22 02:25:57;;;;;;;11.05;8.75;;;10.20;96.20;;;;;;5027147;28;20407;-59
2023/03/22 02:28:33;;;;;;;14.93;9.20;;;10.10;99.90;;;;;;5031929;28;20411;-59
2023/03/22 02:31:17;;;;;;;13.23;9.32;;;10.10;99.90;;;;;;5040503;28;20403;-60
2023/03/22 02:34:17;;;;;;;13.13;8.70;;;10.10;99.90;;;;;;5040352;28;20419;-61
2023/03/22 02:37:06;;;;;;;14.13;9.00;;;10.20;99.90;;;;;;5042095;28;20409;-61
2023/03/22 02:39:40;;;;;;;15.27;9.05;;;10.20;99.90;;;;;;5042316;28;20409;-60
2023/03/22 02:42:20;;;;;;;13.45;9.18;;;10.20;99.90;;;;;;5042536;28;20413;-61
2023/03/22 02:44:56;;;;;;;11.88;9.13;;;10.10;99.90;;;;;;5041176;28;20408;-61
2023/03/22 02:47:28;;;;;;;15.00;8.90;;;10.20;99.90;;;;;;5040868;28;20785;-60
2023/03/22 02:49:59;;;;;;;12.30;8.57;;;10.10;99.90;;;;;;5040069;28;20407;-61
2023/03/22 02:52:32;;;;;;;13.95;8.80;;;10.10;99.90;;;;;;5041056;28;20413;-61
2023/03/22 02:55:06;;;;;;;12.98;9.00;;;10.10;99.90;;;;;;5048515;28;20425;-60
2023/03/22 02:57:37;;;;;;;13.65;8.80;;;10.10;99.90;;;;;;5045473;28;20446;-60
2023/03/22 03:00:09;;;;;;;11.23;9.17;;;10.10;99.90;;;;;;5031210;28;20469;-61
2023/03/22 03:02:38;;;;;;;13.07;8.57;;;10.10;99.90;;;;;;5031302;28;20461;-61
2023/03/22 03:05:07;;;;;;;12.20;8.75;;;10.10;99.90;;;;;;5030500;28;20411;-61
2023/03/22 03:07:34;;;;;;;11.65;8.98;;;10.20;99.90;;;;;;5030689;28;20789;-61
2023/03/22 03:10:04;;;;;;;12.77;9.45;;;10.00;99.90;;;;;;5032803;28;20426;-61
2023/03/22 03:12:30;;;;;;;12.27;9.07;;;10.00;99.90;;;;;;5039766;28;20502;-61
2023/03/22 03:14:57;;;;;;;12.18;9.52;;;9.90;99.90;;;;;;5041809;28;20417;-61
2023/03/22 03:17:38;;;;;;;13.13;9.43;;;9.90;99.90;;;;;;5041236;28;20436;-59
2023/03/22 03:20:22;;;;;;;15.67;9.33;;;9.90;99.90;;;;;;5040709;28;20529;-59
2023/03/22 03:23:00;;;;;;;11.50;9.40;;;9.80;99.90;;;;;;5040980;28;20486;-60
2023/03/22 03:25:37;;;;;;;10.93;9.20;;;9.90;99.90;;;;;;5048616;28;20463;-61
2023/03/22 03:28:08;;;;;;;13.73;9.40;;;9.90;99.90;;;;;;5042089;28;20413;-61
2023/03/22 03:30:42;;;;;;;13.23;9.52;;;9.90;99.90;;;;;;5041328;28;20428;-61
2023/03/22 03:33:15;;;;;;;14.75;9.73;;;9.80;99.90;;;;;;5040011;28;20424;-61
2023/03/22 03:35:47;;;;;;;11.60;9.18;;;9.80;99.90;;;;;;5039128;28;20510;-61
2023/03/22 03:38:18;;;;;;;12.65;9.60;;;9.80;99.90;;;;;;5040412;28;20480;-60
2023/03/22 03:40:50;;;;;;;13.52;9.25;;;9.70;99.90;;;;;;5041978;28;20449;-61
2023/03/22 03:43:18;;;;;;;14.20;9.55;;;9.80;99.90;;;;;;5041426;28;20417;-60
2023/03/22 03:45:46;;;;;;;15.07;9.43;;;9.70;99.90;;;;;;5030469;28;20402;-58
2023/03/22 03:48:18;;;;;;;14.93;10.07;;;9.70;99.90;;;;;;5031986;28;20913;-60
2023/03/22 03:50:45;;;;;;;13.18;8.93;;;9.70;99.90;;;;;;5043697;28;20410;-60
2023/03/22 03:53:12;;;;;;;13.38;9.25;;;9.80;99.90;;;;;;5047249;28;20421;-60
2023/03/22 03:55:38;;;;;;;12.38;9.20;;;9.70;99.90;;;;;;5059675;28;20431;-60
2023/03/22 03:58:07;;;;;;;11.85;8.68;;;9.80;99.90;;;;;;5044790;28;20413;-59
2023/03/22 04:00:34;;;;;;;12.23;8.88;;;9.70;99.90;;;;;;5046164;28;20416;-60
2023/03/22 04:03:01;;;;;;;13.85;9.50;;;9.70;99.90;;;;;;5043649;28;20433;-60
2023/03/22 04:05:27;;;;;;;14.30;8.35;;;9.70;99.90;;;;;;5043411;28;20406;-59
2023/03/22 04:07:54;;;;;;;13.80;8.80;;;9.70;99.90;;;;;;5045546;28;20413;-59
2023/03/22 04:10:21;;;;;;;14.82;9.18;;;9.70;99.90;;;;;;5043893;28;20461;-60
2023/03/22 04:12:47;;;;;;;10.95;8.55;;;9.70;99.90;;;;;;5043053;28;20457;-60
2023/03/22 04:15:16;;;;;;;12.55;8.43;;;9.60;99.90;;;;;;5044924;28;20425;-60
2023/03/22 04:17:42;;;;;;;13.85;9.00;;;9.70;99.90;;;;;;5041366;28;20418;-60
2023/03/22 04:20:11;;;;;;;11.20;8.13;;;9.60;99.90;;;;;;5045106;28;20440;-60
2023/03/22 04:22:40;;;;;;;14.43;8.88;;;9.60;99.90;;;;;;5044053;28;20413;-60
2023/03/22 04:25:10;;;;;;;12.63;8.47;;;9.60;99.90;;;;;;5047200;28;20424;-59
2023/03/22 04:27:37;;;;;;;11.57;8.48;;;9.70;99.90;;;;;;5044890;28;21060;-59
2023/03/22 04:30:05;;;;;;;12.98;8.80;;;9.70;99.90;;;;;;5049798;28;20417;-60
2023/03/22 04:32:33;;;;;;;12.98;8.52;;;9.60;99.90;;;;;;5042951;28;20421;-59
2023/03/22 04:35:00;;;;;;;10.77;8.23;;;9.60;99.90;;;;;;5043517;28;20433;-59
2023/03/22 04:37:26;;;;;;;14.85;8.50;;;9.70;99.90;;;;;;5045083;28;20487;-59
2023/03/22 04:39:53;;;;;;;13.52;8.35;;;9.70;99.90;;;;;;5048777;28;20429;-60
2023/03/22 04:42:20;;;;;;;18.15;8.63;;;9.70;99.90;;;;;;5043303;28;20419;-60
2023/03/22 04:44:47;;;;;;;10.60;7.60;;;9.60;99.90;;;;;;5043692;28;20908;-60
2023/03/22 04:47:13;;;;;;;11.73;7.50;;;9.60;99.90;;;;;;5044666;28;20956;-58
2023/03/22 04:49:41;;;;;;;10.60;7.75;;;9.60;99.90;;;;;;5042434;28;20419;-59
2023/03/22 04:52:08;;;;;;;13.75;7.88;;;9.70;99.90;;;;;;5042610;28;20423;-60
2023/03/22 04:54:35;;;;;;;12.55;7.80;;;9.70;99.90;;;;;;5053026;28;20449;-59
2023/03/22 04:57:01;;;;;;;13.63;7.68;;;9.70;99.90;;;;;;5044250;28;20475;-60
2023/03/22 04:59:28;;;;;;;13.18;7.70;;;9.70;99.90;;;;;;5042157;28;20423;-60
2023/03/22 05:01:55;;;;;;;13.73;8.03;;;9.70;99.90;;;;;;5047689;28;20513;-59
2023/03/22 05:04:22;;;;;;;10.85;7.82;;;9.70;99.90;;;;;;5047656;28;20422;-58
2023/03/22 05:06:50;;;;;;;12.82;8.38;;;9.60;99.90;;;;;;5044403;28;20488;-60
2023/03/22 05:09:17;;;;;;;11.10;8.00;;;9.60;99.90;;;;;;5043307;28;20441;-60
2023/03/22 05:11:43;;;;;;;10.70;7.25;;;9.60;99.90;;;;;;5041824;28;20411;-60
2023/03/22 05:14:11;;;;;;;13.02;8.13;;;9.70;99.90;;;;;;5043390;28;20803;-60
2023/03/22 05:16:39;;;;;;;12.32;7.65;;;9.60;99.90;;;;;;5043519;28;20425;-59
2023/03/22 05:19:12;;;;;;;11.13;7.38;;;9.60;99.90;;;;;;5032990;28;20794;-60
2023/03/22 05:21:40;;;;;;;13.30;7.68;;;9.70;99.90;;;;;;5032990;28;20422;-55
2023/03/22 05:24:08;;;;;;;12.93;7.65;;;9.70;99.90;;;;;;5047601;28;20883;-60
2023/03/22 05:26:36;;;;;;;10.57;7.65;;;9.60;99.90;;;;;;5048213;28;20411;-60
2023/03/22 05:29:04;;;;;;;12.00;7.47;;;9.70;99.90;;;;;;5043720;28;20418;-59
2023/03/22 05:31:33;;;;;;;10.45;7.63;;;9.70;99.90;;;;;;5042786;28;20414;-60
2023/03/22 05:34:00;;;;;;;11.27;6.95;;;9.80;99.90;;;;;;5040995;28;20785;-59
2023/03/22 05:36:28;;;;;;;10.43;6.50;;;9.90;99.90;;;;;;5042300;28;20787;-59
2023/03/22 05:38:56;;;;;;;10.40;6.88;;;9.90;99.90;;;;;;5043605;28;20409;-60
2023/03/22 05:41:24;;;;;;;10.47;6.70;;;9.90;99.90;;;;;;5041871;28;20496;-60
2023/03/22 05:43:51;;;;;;;11.13;6.70;;;10.00;99.90;;;;;;5041022;28;20421;-60
2023/03/22 05:46:17;;;;;;;10.18;6.55;;;10.10;99.90;;;;;;5041059;28;20422;-59
2023/03/22 05:48:44;;;;;;;10.93;6.20;;;10.20;99.90;;;;;;5042198;28;20422;-59
2023/03/22 05:51:16;;;;;;;11.23;6.45;;;10.10;99.90;;;;;;5044852;28;20420;-67
2023/03/22 05:53:43;;;;;;;10.93;6.38;;;10.10;99.90;;;;;;5053191;28;20451;-61
2023/03/22 05:56:10;;;;;;;9.90;6.20;;;10.10;99.90;;;;;;5051727;28;20429;-61
2023/03/22 05:58:39;;;;;;;8.77;6.45;;;10.20;99.90;;;;;;5048593;28;20763;-59
2023/03/22 06:01:07;;;;;;;10.85;6.68;;;10.30;99.90;;;;;;5042002;28;20442;-60
2023/03/22 06:03:34;;;;;;;10.45;6.20;;;10.30;99.90;;;;;;5048591;28;20423;-62
2023/03/22 06:06:01;;;;;;;10.55;6.20;;;10.40;99.90;;;;;;5040194;28;20414;-62
2023/03/22 06:08:28;;;;;;;12.40;6.30;;;10.40;99.90;;;;;;5043363;28;20807;-59
2023/03/22 06:10:54;;;;;;;11.13;6.25;;;10.40;99.90;;;;;;5041285;28;20465;-61
2023/03/22 06:13:22;;;;;;;9.20;5.95;;;10.40;99.90;;;;;;5040346;28;20419;-62
2023/03/22 06:15:50;;;;;;;11.15;6.03;;;10.50;99.20;;;;;;5042308;28;20426;-61
2023/03/22 06:18:17;;;;;;;9.27;6.47;;;10.50;98.80;;;;;;5042200;28;20507;-62
2023/03/22 06:20:44;;;;;;;9.15;5.60;;;10.60;95.50;;;;;;5040686;28;20407;-62
2023/03/22 06:23:10;;;;;;;10.35;6.10;;;10.60;94.10;;;;;;5043649;28;20436;-62
2023/03/22 06:25:37;;;;;;;9.32;5.95;;;10.60;95.80;;;;;;5056178;28;20411;-62
2023/03/22 06:28:04;;;;;;;9.35;5.20;;;10.60;95.00;;;;;;5041388;28;20487;-62
2023/03/22 06:30:31;;;;;;;8.75;5.43;;;10.70;94.20;;;;;;5046526;28;20421;-59
2023/03/22 06:33:03;;;;;;;9.88;5.35;;;10.70;92.60;;;;;;5031116;28;20488;-62
2023/03/22 06:35:29;;;;;;;10.07;5.25;;;10.70;89.20;;;;;;5030854;28;20435;-56
2023/03/22 06:37:56;;;;;;;9.95;5.38;;;10.80;88.50;;;;;;5034304;28;20911;-59
2023/03/22 06:40:23;;;;;;;11.95;5.60;;;10.80;83.80;;;;;;5041252;28;20487;-62
2023/03/22 06:42:49;;;;;;;8.63;4.93;;;10.90;84.10;;;;;;5039948;28;20441;-58
2023/03/22 06:45:16;;;;;;;10.00;5.25;;;10.90;71.50;;;;;;5040843;28;20922;-59
2023/03/22 06:47:43;;;;;;;9.90;5.35;;;10.90;73.60;;;;;;5042096;28;20475;-59
2023/03/22 06:50:13;;;;;;;10.07;4.88;;;10.90;74.80;;;;;;5041713;28;20870;-56
2023/03/22 06:52:40;;;;;;;9.75;4.75;;;11.00;71.10;;;;;;5047551;28;20462;-63
2023/03/22 06:55:07;;;;;;;9.97;4.73;;;11.00;66.30;;;;;;5052390;28;20529;-63
2023/03/22 06:57:34;;;;;;;8.20;4.57;;;11.00;59.40;;;;;;5042938;28;20414;-60
2023/03/22 07:00:01;;;;;;;11.23;5.40;;;11.10;58.20;;;;;;5039716;28;20422;-61
2023/03/22 07:02:28;;;;;;;8.07;4.90;;;11.20;53.70;;;;;;5041547;28;20416;-58
2023/03/22 07:04:54;;;;;;;9.88;4.80;;;11.20;37.80;;;;;;5041267;28;20417;-59
2023/03/22 07:07:23;;;;;;;9.30;4.97;;;11.20;53.00;;;;;;5039093;28;20411;-60
2023/03/22 07:09:50;;;;;;;11.82;4.68;;;11.20;51.20;;;;;;5042209;28;20417;-61
2023/03/22 07:12:17;;;;;;;10.07;4.53;;;11.20;30.00;;;;;;5044560;28;20506;-59
2023/03/22 07:14:44;;;;;;;7.78;4.20;;;11.30;35.30;;;;;;5044986;28;20415;-60
2023/03/22 07:17:11;;;;;;;8.88;4.13;;;11.20;29.80;;;;;;5046704;28;20436;-59
2023/03/22 07:19:38;;;;;;;7.10;3.83;;;11.30;31.40;;;;;;5031019;28;20781;-66
2023/03/22 07:22:04;;;;;;;10.88;3.85;;;11.30;33.20;;;;;;5029443;28;20410;-66
2023/03/22 07:24:33;;;;;;;9.73;4.00;;;11.20;14.20;;;;;;5045441;28;20476;-66
2023/03/22 07:26:59;;;;;;;8.43;3.80;;;11.20;25.70;;;;;;5038720;28;20413;-65
2023/03/22 07:29:26;;;;;;;7.13;3.50;;;11.30;8.50;;;;;;5051346;28;20426;-67
2023/03/22 07:31:53;;;;;;;8.15;3.67;;;11.30;1.00;;;;;;5049446;28;20411;-68
2023/03/22 07:34:20;;;;;;;9.00;3.40;;;11.40;1.00;;;;;;5046858;28;21110;-67
2023/03/22 07:36:46;;;;;;;8.73;3.15;;;11.40;1.00;;;;;;5042340;28;20428;-66
2023/03/22 07:39:13;;;;;;;7.27;3.37;;;11.50;1.00;;;;;;5039139;28;20476;-66
2023/03/22 07:41:41;;;;;;;5.97;3.08;;;11.40;1.00;;;;;;5039136;28;20419;-65
2023/03/22 07:44:08;;;;;;;9.48;3.25;;;11.60;1.00;;;;;;5038909;28;20418;-67
2023/03/22 07:46:34;;;;;;;7.07;2.60;;;11.60;1.00;;;;;;5038787;28;20419;-66
2023/03/22 07:49:01;;;;;;;7.05;2.85;;;11.90;1.00;;;;;;5040362;28;20981;-65
2023/03/22 07:51:28;;;;;;;5.43;2.88;;;11.90;1.00;;;;;;5046203;28;21159;-64
2023/03/22 07:53:55;;;;;;;8.30;3.10;;;12.10;1.00;;;;;;5057779;28;20425;-64
2023/03/22 07:56:22;;;;;;;7.45;2.70;;;12.20;1.00;;;;;;5044719;28;20429;-62
2023/03/22 07:58:50;;;;;;;7.05;2.78;;;12.40;1.00;;;;;;5040056;28;20409;-61
2023/03/22 08:01:16;;;;;;;6.97;3.03;;;12.30;1.00;;;;;;5038087;28;20493;-61
2023/03/22 08:03:43;;;;;;;7.60;2.90;;;12.40;1.00;;;;;;5046392;28;20423;-59
2023/03/22 08:06:11;;;;;;;7.30;2.88;;;12.40;1.00;;;;;;5038269;28;20459;-60
2023/03/22 08:08:38;;;;;;;7.57;2.88;;;12.50;1.00;;;;;;5040516;28;20861;-61
2023/03/22 08:11:05;;;;;;;5.80;2.55;;;12.40;1.00;;;;;;5049521;28;20410;-62
2023/03/22 08:13:32;;;;;;;6.80;2.80;;;12.50;1.00;;;;;;5045434;28;20422;-61
2023/03/22 08:16:00;;;;;;;6.13;2.40;;;12.50;99.90;;;;;;5039202;28;20479;-62
2023/03/22 08:18:27;;;;;;;7.67;2.93;;;12.30;99.90;;;;;;5040512;28;20471;-61
2023/03/22 08:20:55;;;;;;;6.57;2.40;;;12.30;99.90;;;;;;5043762;28;20419;-60
2023/03/22 08:23:22;;;;;;;6.85;2.70;;;12.50;99.90;;;;;;5047853;28;20475;-60
2023/03/22 08:25:48;;;;;;;7.45;2.55;;;12.30;99.90;;;;;;5050480;28;20407;-59
2023/03/22 08:28:15;;;;;;;5.77;2.50;;;12.30;99.90;;;;;;5038331;28;20415;-58
2023/03/22 08:30:42;;;;;;;5.82;2.45;;;12.20;99.90;;;;;;5046133;28;20450;-58
2023/03/22 08:33:10;;;;;;;6.82;2.83;;;12.40;99.90;;;;;;5044557;28;20413;-60
2023/03/22 08:35:37;;;;;;;6.28;2.40;;;12.30;99.90;;;;;;5043831;28;20413;-59
2023/03/22 08:38:04;;;;;;;6.07;2.10;;;12.40;99.90;;;;;;5041871;28;20924;-57
2023/03/22 08:40:31;;;;;;;8.30;2.47;;;12.40;3.90;;;;;;5041892;28;20425;-57
2023/03/22 08:42:58;;;;;;;5.63;2.30;;;12.50;99.90;;;;;;5044405;28;20748;-60
2023/03/22 08:45:25;;;;;;;9.50;2.63;;;12.60;1.00;;;;;;5039017;28;20466;-62
2023/03/22 08:47:52;;;;;;;6.75;2.55;;;12.70;99.90;;;;;;5041254;28;20414;-63
2023/03/22 08:50:20;;;;;;;5.65;2.08;;;12.80;99.90;;;;;;5043640;28;20417;-63
2023/03/22 08:52:47;;;;;;;7.18;2.00;;;12.70;99.90;;;;;;5049360;28;20413;-64
2023/03/22 08:55:16;;;;;;;5.70;2.15;;;12.80;99.90;;;;;;5055591;28;20920;-62
2023/03/22 08:57:43;;;;;;;6.70;2.50;;;13.00;99.90;;;;;;5045667;28;20520;-62
2023/03/22 09:00:13;;;;;;;6.57;1.85;;;13.00;99.90;;;;;;5044466;28;20967;-63
2023/03/22 09:02:40;;;;;;;5.70;1.77;;;12.80;33.80;;;;;;5041430;28;20430;-63
2023/03/22 09:05:07;;;;;;;4.05;1.70;;;13.00;42.70;;;;;;5041452;28;20473;-65
2023/03/22 09:07:36;;;;;;;3.70;1.80;;;12.80;1.00;;;;;;5042065;28;20409;-63
2023/03/22 09:10:02;;;;;;;5.10;1.50;;;12.70;1.00;;;;;;5040304;28;20506;-60
2023/03/22 09:12:29;;;;;;;6.45;1.48;;;12.70;1.00;;;;;;5041758;28;20857;-61
2023/03/22 09:14:56;;;;;;;4.20;1.37;;;12.80;1.00;;;;;;5041964;28;20478;-59
2023/03/22 09:17:22;;;;;;;4.20;1.60;;;12.60;1.00;;;;;;5043138;28;20421;-60
2023/03/22 09:19:49;;;;;;;4.80;1.25;;;12.50;99.90;;;;;;5039689;28;20470;-64
2023/03/22 09:22:16;;;;;;;4.50;1.58;;;12.50;1.00;;;;;;5040331;28;20417;-64
2023/03/22 09:24:44;;;;;;;5.47;1.60;;;12.40;99.90;;;;;;5058435;28;20469;-63
2023/03/22 09:27:11;;;;;;;6.43;1.70;;;12.50;99.90;;;;;;5048424;28;20426;-61
2023/03/22 09:29:38;;;;;;;5.53;1.53;;;12.40;1.00;;;;;;5043726;28;20466;-60
2023/03/22 09:32:05;;;;;;;5.95;1.60;;;12.50;1.00;;;;;;5044536;28;20444;-59
2023/03/22 09:34:31;;;;;;;5.03;1.53;;;12.60;1.00;;;;;;5046409;28;20472;-60
2023/03/22 09:37:01;;;;;;;4.97;1.70;;;12.70;99.90;;;;;;5041868;28;20453;-59
2023/03/22 09:39:27;;;;;;;5.05;1.80;;;13.00;99.90;;;;;;5042412;28;21040;-62
2023/03/22 09:41:59;;;;;;;6.05;1.60;;;13.20;99.90;;;;;;5040430;28;20431;-62
2023/03/22 09:44:30;;;;;;;4.20;1.45;;;13.10;99.90;;;;;;5041440;28;20411;-63
2023/03/22 09:46:58;;;;;;;5.65;1.75;;;13.40;99.90;;;;;;5036519;28;20454;-62
2023/03/22 09:49:30;;;;;;;4.47;1.65;;;13.40;99.90;;;;;;5041264;28;20825;-60
2023/03/22 09:51:56;;;;;;;5.20;1.65;;;13.40;99.90;;;;;;5043890;28;20477;-61
2023/03/22 09:54:31;;;;;;;5.18;1.92;;;13.70;99.90;;;;;;5053355;28;20477;-61
2023/03/22 09:57:04;;;;;;;4.90;1.98;;;13.70;1.00;;;;;;5043428;28;20483;-61
2023/03/22 09:59:38;;;;;;;5.65;1.60;;;13.50;1.00;;;;;;5042416;28;20539;-62
2023/03/22 10:02:32;;;;;;;4.18;1.38;;;13.50;1.00;;;;;;5039149;28;20440;-62
2023/03/22 10:05:11;;;;;;;3.55;1.30;;;13.40;1.00;;;;;;5043643;28;20769;-63
2023/03/22 10:07:52;;;;;;;5.55;1.65;;;13.30;1.00;;;;;;5043881;28;20413;-62
2023/03/22 10:10:21;;;;;;;4.30;1.50;;;13.10;1.00;;;;;;5043042;28;20436;-62
2023/03/22 10:12:58;;;;;;;3.67;1.20;;;13.20;1.00;;;;;;5049329;28;20412;-62
2023/03/22 10:15:31;;;;;;;5.82;1.38;;;13.40;1.00;;;;;;5043415;28;20419;-62
2023/03/22 10:18:00;;;;;;;3.75;1.33;;;13.60;1.00;;;;;;5040441;28;20481;-60
2023/03/22 10:20:36;;;;;;;6.13;1.40;;;13.70;1.00;;;;;;5039895;28;20820;-59
2023/03/22 10:23:07;;;;;;;4.80;1.17;;;13.60;1.00;;;;;;5041974;28;20885;-62
2023/03/22 10:25:36;;;;;;;4.35;1.42;;;13.50;99.90;;;;;;5046740;28;20488;-60
2023/03/22 10:28:15;;;;;;;4.35;1.42;;;13.50;1.00;;;;;;5043543;28;20409;-61
2023/03/22 10:30:44;;;;;;;4.55;1.45;;;13.60;1.00;;;;;;5042363;28;20410;-61
2023/03/22 10:33:16;;;;;;;4.90;1.45;;;13.70;99.90;;;;;;5039698;28;20442;-60
2023/03/22 10:35:43;;;;;;;5.20;1.30;;;13.90;99.90;;;;;;5039432;28;20411;-60
2023/03/22 10:38:20;;;;;;;3.72;1.10;;;13.90;99.90;;;;;;5037596;28;20429;-60
2023/03/22 10:40:51;;;;;;;2.60;1.27;;;13.70;99.90;;;;;;5053318;28;20407;-60
2023/03/22 10:43:23;;;;;;;4.63;1.55;;;13.90;99.90;;;;;;5046961;28;20422;-60
2023/03/22 10:45:52;;;;;;;3.23;1.40;;;13.80;99.90;;;;;;5039806;28;20474;-63
2023/03/22 10:48:27;;;;;;;5.00;1.52;;;13.80;99.90;;;;;;5042512;28;20934;-58
2023/03/22 10:50:56;;;;;;;4.10;1.52;;;14.00;99.90;;;;;;5049454;28;20472;-58
2023/03/22 10:53:32;;;;;;;4.28;1.58;;;14.20;99.90;;;;;;5053375;28;20474;-61
2023/03/22 10:55:59;;;;;;;5.68;1.50;;;14.20;99.90;;;;;;5062190;28;20460;-58
2023/03/22 10:58:31;;;;;;;4.47;1.42;;;14.00;99.90;;;;;;5046707;28;20514;-59
2023/03/22 11:00:59;;;;;;;4.57;1.50;;;13.80;99.90;;;;;;5042843;28;20417;-61
2023/03/22 11:03:29;;;;;;;4.68;1.70;;;13.90;99.90;;;;;;5038851;28;20426;-59
2023/03/22 11:06:01;;;;;;;4.15;1.50;;;13.90;99.90;;;;;;5038401;28;20405;-60
2023/03/22 11:08:28;;;;;;;6.05;1.90;;;14.00;99.90;;;;;;5030073;28;20503;-61
2023/03/22 11:10:59;;;;;;;6.67;1.60;;;14.10;99.90;;;;;;5040838;28;20464;-61
2023/03/22 11:13:25;;;;;;;4.78;1.90;;;14.20;99.90;;;;;;5049890;28;20554;-62
2023/03/22 11:15:58;;;;;;;5.53;1.60;;;14.20;99.90;;;;;;5039925;28;20413;-61
2023/03/22 11:18:30;;;;;;;4.88;1.63;;;14.40;99.90;;;;;;5038603;28;20525;-63
2023/03/22 11:20:59;;;;;;;2.85;1.30;;;14.30;99.90;;;;;;5036179;28;20410;-63
2023/03/22 11:23:27;;;;;;;5.17;1.80;;;14.10;99.90;;;;;;5038960;28;20461;-63
2023/03/22 11:25:58;;;;;;;5.05;1.67;;;13.90;99.90;;;;;;5043772;28;20472;-64
2023/03/22 11:28:32;;;;;;;5.85;1.65;;;13.60;99.90;;;;;;5044753;28;20465;-65
2023/03/22 11:31:07;;;;;;;6.45;1.60;;;13.70;99.90;;;;;;5059022;28;20448;-64
2023/03/22 11:33:34;;;;;;;7.33;1.60;;;13.60;99.90;;;;;;5044764;28;20423;-64
2023/03/22 11:36:05;;;;;;;4.80;1.40;;;13.80;99.90;;;;;;5043536;28;20437;-60
2023/03/22 11:38:36;;;;;;;5.20;1.57;;;13.80;99.90;;;;;;5040366;28;20448;-61
2023/03/22 11:41:06;;;;;;;4.50;1.60;;;13.70;99.90;;;;;;5038925;28;20411;-59
2023/03/22 11:43:36;;;;;;;6.22;1.58;;;13.80;99.90;;;;;;5046014;28;21179;-61
2023/03/22 11:46:05;;;;;;;4.07;1.30;;;13.50;99.90;;;;;;5047627;28;20413;-60
2023/03/22 11:48:33;;;;;;;3.50;1.30;;;13.70;99.90;;;;;;5040956;28;20413;-60
2023/03/22 11:51:06;;;;;;;4.47;1.55;;;13.60;99.90;;;;;;5040780;28;20946;-62
2023/03/22 11:53:36;;;;;;;3.90;1.60;;;13.60;99.90;;;;;;5048822;28;20419;-61
2023/03/22 11:56:06;;;;;;;4.22;1.42;;;13.30;99.90;;;;;;5041912;28;20461;-63
2023/03/22 11:58:58;;;;;;;5.85;1.63;;;13.30;99.90;;;;;;5038962;28;20428;-61
2023/03/22 12:01:34;;;;;;;4.97;1.58;;;13.20;99.90;;;;;;5029631;28;20446;-63
2023/03/22 12:04:03;;;;;;;4.88;1.80;;;13.40;99.90;;;;;;5030299;28;20501;-62
2023/03/22 12:06:34;;;;;;;5.22;1.38;;;13.30;99.90;;;;;;5038186;28;20438;-61
2023/03/22 12:09:05;;;;;;;3.33;1.30;;;13.50;99.90;;;;;;5039922;28;20418;-60
2023/03/22 12:11:37;;;;;;;3.40;1.30;;;13.50;99.90;;;;;;5048221;28;20425;-61
2023/03/22 12:14:13;;;;;;;5.75;1.40;;;13.50;99.90;;;;;;5058448;28;20470;-61
2023/03/22 12:16:47;;;;;;;4.43;1.35;;;13.50;99.90;;;;;;5044820;28;20506;-60
2023/03/22 12:19:22;;;;;;;3.28;1.40;;;13.50;99.90;;;;;;5042313;28;20430;-61
2023/03/22 12:21:51;;;;;;;4.43;1.20;;;13.20;99.90;;;;;;5042268;28;20418;-60
2023/03/22 12:24:26;;;;;;;4.60;1.60;;;13.10;99.90;;;;;;5048512;28;20424;-61
2023/03/22 12:26:56;;;;;;;4.60;1.30;;;13.20;99.90;;;;;;5043022;28;20414;-61
2023/03/22 12:29:23;;;;;;;5.18;1.58;;;13.00;99.90;;;;;;5044997;28;20473;-61
2023/03/22 12:31:58;;;;;;;3.47;1.30;;;13.10;99.90;;;;;;5042291;28;20421;-61
2023/03/22 12:34:34;;;;;;;3.58;1.50;;;13.20;99.90;;;;;;5044338;28;20473;-61
2023/03/22 12:37:03;;;;;;;4.00;1.30;;;13.30;99.90;;;;;;5047076;28;20409;-64
2023/03/22 12:39:35;;;;;;;6.18;1.50;;;13.30;99.90;;;;;;5041704;28;20413;-61
2023/03/22 12:42:06;;;;;;;4.55;1.35;;;13.30;99.90;;;;;;5042340;28;20762;-59
2023/03/22 12:44:38;;;;;;;5.95;1.60;;;13.50;99.90;;;;;;5032919;28;20446;-60
2023/03/22 12:47:12;;;;;;;4.70;1.23;;;13.70;99.90;;;;;;5032662;28;20429;-62
2023/03/22 12:49:42;;;;;;;4.45;1.10;;;13.70;99.90;;;;;;5042833;28;20425;-62
2023/03/22 12:52:15;;;;;;;4.88;1.42;;;13.60;99.90;;;;;;5050453;28;20471;-63
2023/03/22 12:54:42;;;;;;;2.38;1.10;;;13.60;99.90;;;;;;5051156;28;20421;-63
2023/03/22 12:57:10;;;;;;;3.97;1.40;;;13.60;99.90;;;;;;5044140;28;20466;-62
2023/03/22 12:59:37;;;;;;;4.18;1.50;;;13.40;99.90;;;;;;5049972;28;20794;-62